Time;durP1;ratioP1;P1;durP2;ratioP2;P2;SDS_P1;SDS_P2;PMS_P1;PMS_P2;Temp;Humidity;BMP_temperature;BMP_pressure;BME280_temperature;BME280_humidity;BME280_pressure;Samples;Min_cycle;Max_cycle;Signal;HPM_P1;HPM_P2
2023/06/18 00:01:43;;;;;;;0.25;0.25;;;20.80;99.90;;;;;;5011651;28;20431;-85
2023/06/18 00:04:09;;;;;;;0.40;0.30;;;20.90;99.90;;;;;;5011865;28;20032;-86
2023/06/18 00:06:35;;;;;;;0.40;0.40;;;20.70;99.90;;;;;;5010857;28;20387;-86
2023/06/18 00:09:00;;;;;;;0.30;0.30;;;20.80;99.90;;;;;;5011788;28;20030;-86
2023/06/18 00:11:26;;;;;;;0.10;0.10;;;21.00;99.90;;;;;;5011513;28;20026;-86
2023/06/18 00:13:51;;;;;;;5.22;0.77;;;21.10;99.90;;;;;;5010961;28;20040;-86
2023/06/18 00:16:17;;;;;;;0.13;0.13;;;21.00;99.90;;;;;;5010980;28;20034;-85
2023/06/18 00:18:43;;;;;;;0.88;0.40;;;20.90;99.90;;;;;;5010057;28;20485;-86
2023/06/18 00:21:10;;;;;;;0.57;0.55;;;20.90;99.90;;;;;;5011626;28;20030;-86
2023/06/18 00:23:36;;;;;;;0.38;0.30;;;20.80;99.90;;;;;;5011793;28;20030;-86
2023/06/18 00:26:01;;;;;;;0.25;0.25;;;20.90;99.90;;;;;;5011512;28;20033;-85
2023/06/18 00:28:28;;;;;;;0.40;0.40;;;20.90;99.90;;;;;;5010749;28;20032;-86
2023/06/18 00:30:55;;;;;;;0.68;0.45;;;20.80;99.90;;;;;;5021345;28;20228;-87
2023/06/18 00:33:22;;;;;;;0.50;0.47;;;20.50;99.90;;;;;;5030686;28;20527;-85
2023/06/18 00:35:48;;;;;;;0.45;0.45;;;20.40;99.90;;;;;;5031031;28;20474;-85
2023/06/18 00:38:16;;;;;;;0.30;0.30;;;20.40;99.90;;;;;;5031139;28;20021;-86
2023/06/18 00:40:42;;;;;;;0.85;0.57;;;20.30;99.90;;;;;;5030779;28;20478;-86
2023/06/18 00:43:08;;;;;;;0.40;0.40;;;20.20;99.90;;;;;;5031147;28;20030;-86
2023/06/18 00:45:34;;;;;;;0.15;0.15;;;20.10;99.90;;;;;;5031543;28;20056;-86
2023/06/18 00:48:00;;;;;;;0.40;0.40;;;20.20;99.90;;;;;;5031044;28;20398;-86
2023/06/18 00:50:28;;;;;;;0.30;0.30;;;20.20;99.90;;;;;;5030984;28;20032;-85
2023/06/18 00:52:59;;;;;;;0.17;0.17;;;20.20;99.90;;;;;;5031051;28;20083;-85
2023/06/18 00:55:29;;;;;;;0.40;0.40;;;20.30;99.90;;;;;;5029529;28;20037;-86
2023/06/18 00:58:02;;;;;;;0.60;0.50;;;20.30;99.90;;;;;;5023778;28;20564;-86
2023/06/18 01:00:32;;;;;;;0.13;0.13;;;20.40;99.90;;;;;;5016531;28;20033;-86
2023/06/18 01:02:59;;;;;;;0.38;0.38;;;20.70;99.90;;;;;;5034781;28;20033;-86
2023/06/18 01:05:25;;;;;;;0.38;0.38;;;20.80;99.90;;;;;;5034579;28;20057;-86
2023/06/18 01:07:52;;;;;;;1.55;0.55;;;20.50;99.90;;;;;;5016407;28;20084;-85
2023/06/18 01:10:20;;;;;;;0.75;0.47;;;20.50;99.90;;;;;;5019432;28;20030;-85
2023/06/18 01:12:48;;;;;;;1.20;0.45;;;20.70;99.90;;;;;;5034264;28;20109;-85
2023/06/18 01:15:16;;;;;;;0.85;0.20;;;20.70;99.90;;;;;;5032686;28;20033;-85
2023/06/18 01:17:46;;;;;;;0.50;0.50;;;20.80;99.90;;;;;;5034279;28;20032;-86
2023/06/18 01:20:14;;;;;;;0.20;0.20;;;20.70;99.90;;;;;;5034519;28;20083;-85
2023/06/18 01:23:16;;;;;;;0.55;0.52;;;20.40;99.90;;;;;;5017445;28;20090;-85
2023/06/18 01:25:43;;;;;;;0.32;0.32;;;20.20;99.90;;;;;;4935067;29;20127;-86
2023/06/18 01:28:10;;;;;;;0.30;0.30;;;20.00;99.90;;;;;;4945571;29;20039;-86
2023/06/18 01:30:36;;;;;;;0.57;0.57;;;19.90;99.90;;;;;;4946416;29;20516;-85
2023/06/18 01:33:03;;;;;;;0.25;0.25;;;19.90;99.90;;;;;;4934668;29;20074;-86
2023/06/18 01:35:29;;;;;;;0.40;0.40;;;19.70;99.90;;;;;;4934570;29;20095;-85
2023/06/18 01:38:06;;;;;;;0.50;0.50;;;19.60;99.90;;;;;;4934681;29;20031;-86
2023/06/18 01:40:58;;;;;;;1.52;0.95;;;19.40;99.90;;;;;;4947230;29;20032;-85
2023/06/18 01:43:35;;;;;;;1.42;1.08;;;19.40;99.90;;;;;;4953381;28;20527;-86
2023/06/18 01:46:10;;;;;;;0.63;0.63;;;19.50;99.90;;;;;;4953500;29;20027;-86
2023/06/18 01:48:41;;;;;;;0.63;0.60;;;19.80;99.90;;;;;;4953516;29;20051;-86
2023/06/18 01:51:07;;;;;;;0.40;0.40;;;19.80;99.90;;;;;;4953319;28;20492;-85
2023/06/18 01:53:35;;;;;;;0.40;0.40;;;19.90;99.90;;;;;;4953131;29;20110;-85
2023/06/18 01:56:02;;;;;;;0.20;0.20;;;20.30;99.90;;;;;;4953085;29;20067;-85
2023/06/18 01:58:33;;;;;;;0.65;0.45;;;20.70;99.90;;;;;;4947313;29;20027;-85
2023/06/18 02:00:59;;;;;;;0.30;0.30;;;20.60;99.90;;;;;;4964172;28;20490;-86
2023/06/18 02:03:25;;;;;;;0.40;0.28;;;20.30;99.90;;;;;;5013383;28;20077;-86
2023/06/18 02:05:51;;;;;;;0.40;0.40;;;20.40;99.90;;;;;;5002860;28;20526;-85
2023/06/18 02:08:17;;;;;;;0.22;0.22;;;20.30;99.90;;;;;;4982541;28;20104;-86
2023/06/18 02:10:43;;;;;;;0.30;0.30;;;20.70;99.90;;;;;;5013433;28;20022;-85
2023/06/18 02:13:10;;;;;;;0.75;0.52;;;21.00;99.90;;;;;;5008230;28;20038;-86
2023/06/18 02:15:35;;;;;;;0.50;0.35;;;20.50;99.90;;;;;;5002984;28;20041;-86
2023/06/18 02:18:01;;;;;;;0.52;0.40;;;20.30;99.90;;;;;;5013552;28;20100;-85
2023/06/18 02:20:27;;;;;;;0.55;0.43;;;20.30;99.90;;;;;;4997632;28;20030;-85
2023/06/18 02:22:53;;;;;;;0.35;0.35;;;20.50;99.90;;;;;;4994274;28;20031;-86
2023/06/18 02:25:19;;;;;;;0.15;0.15;;;20.60;99.90;;;;;;4992995;28;20053;-88
2023/06/18 02:27:56;;;;;;;0.50;0.50;;;20.90;99.90;;;;;;4993519;28;20022;-85
2023/06/18 02:30:22;;;;;;;0.40;0.40;;;21.20;99.90;;;;;;4998982;28;20513;-86
2023/06/18 02:32:48;;;;;;;0.50;0.30;;;20.80;99.90;;;;;;5013030;28;20026;-85
2023/06/18 02:35:15;;;;;;;0.47;0.47;;;20.70;99.90;;;;;;5013018;28;20041;-86
2023/06/18 02:37:41;;;;;;;0.57;0.25;;;20.50;99.90;;;;;;5013086;28;20025;-86
2023/06/18 02:40:08;;;;;;;1.40;0.32;;;20.40;99.90;;;;;;5012620;28;20038;-86
2023/06/18 02:42:33;;;;;;;0.43;0.43;;;20.30;99.90;;;;;;5015075;28;20013;-85
2023/06/18 02:44:59;;;;;;;0.40;0.32;;;20.50;99.90;;;;;;5032696;28;20080;-85
2023/06/18 02:47:25;;;;;;;0.30;0.30;;;20.60;99.90;;;;;;5032732;28;20049;-85
2023/06/18 02:49:51;;;;;;;0.28;0.25;;;20.30;99.90;;;;;;5032798;28;20061;-85
2023/06/18 02:52:16;;;;;;;0.70;0.70;;;20.40;99.90;;;;;;5032545;28;20113;-85
2023/06/18 02:54:43;;;;;;;0.20;0.20;;;20.30;99.90;;;;;;5031643;28;20436;-85
2023/06/18 02:57:09;;;;;;;0.40;0.20;;;20.30;99.90;;;;;;5032777;28;20124;-85
2023/06/18 02:59:34;;;;;;;0.10;0.10;;;20.50;99.90;;;;;;5032752;28;20506;-86
2023/06/18 03:02:04;;;;;;;0.25;0.25;;;20.80;99.90;;;;;;5032309;28;20529;-85
2023/06/18 03:04:30;;;;;;;0.20;0.20;;;20.70;99.90;;;;;;5032313;28;20112;-86
2023/06/18 03:06:59;;;;;;;0.43;0.43;;;20.90;99.90;;;;;;5028077;28;20030;-85
2023/06/18 03:09:25;;;;;;;0.20;0.20;;;20.80;99.90;;;;;;5015790;28;20041;-86
2023/06/18 03:11:50;;;;;;;0.30;0.30;;;20.60;99.90;;;;;;5012446;28;20026;-86
2023/06/18 03:14:16;;;;;;;0.00;0.00;;;20.70;99.90;;;;;;5014378;28;20566;-86
2023/06/18 03:16:41;;;;;;;0.50;0.50;;;20.90;99.90;;;;;;5030355;28;20028;-86
2023/06/18 03:19:07;;;;;;;0.10;0.10;;;21.00;99.90;;;;;;5026583;28;20433;-86
2023/06/18 03:21:33;;;;;;;0.40;0.40;;;21.20;99.90;;;;;;5025805;28;20030;-85
2023/06/18 03:23:58;;;;;;;0.43;0.30;;;21.20;99.90;;;;;;5012982;28;20026;-85
2023/06/18 03:26:24;;;;;;;0.38;0.35;;;21.30;99.90;;;;;;5013304;28;20029;-85
2023/06/18 03:28:50;;;;;;;0.10;0.10;;;21.40;99.90;;;;;;5021895;28;20032;-85
2023/06/18 03:31:16;;;;;;;1.58;0.80;;;21.20;99.90;;;;;;5009500;28;20033;-85
2023/06/18 03:33:41;;;;;;;0.47;0.47;;;20.20;99.90;;;;;;5031846;28;20025;-85
2023/06/18 03:36:07;;;;;;;0.60;0.57;;;20.00;99.90;;;;;;5014236;28;20033;-86
2023/06/18 03:38:33;;;;;;;0.52;0.47;;;20.00;99.90;;;;;;5012639;28;20116;-86
2023/06/18 03:40:58;;;;;;;0.63;0.52;;;20.30;99.90;;;;;;5010779;28;20104;-85
2023/06/18 03:43:24;;;;;;;0.30;0.30;;;20.30;99.90;;;;;;5012159;28;20026;-86
2023/06/18 03:45:49;;;;;;;0.30;0.30;;;20.30;99.90;;;;;;5000604;28;20030;-86
2023/06/18 03:48:15;;;;;;;0.30;0.30;;;20.10;99.90;;;;;;4992296;28;20462;-85
2023/06/18 03:50:41;;;;;;;0.20;0.20;;;20.20;99.90;;;;;;4992745;28;20032;-85
2023/06/18 03:53:07;;;;;;;0.20;0.20;;;20.40;99.90;;;;;;4992100;28;20030;-86
2023/06/18 03:55:33;;;;;;;0.20;0.20;;;20.50;99.90;;;;;;5003823;28;20065;-86
2023/06/18 03:57:58;;;;;;;0.05;0.05;;;20.70;99.90;;;;;;5010344;28;20475;-85
2023/06/18 04:00:24;;;;;;;0.28;0.25;;;20.70;99.90;;;;;;5012416;28;20022;-85
2023/06/18 04:02:51;;;;;;;0.10;0.10;;;20.80;99.90;;;;;;4998092;28;20033;-86
2023/06/18 04:05:17;;;;;;;0.00;0.00;;;20.80;99.90;;;;;;4992337;28;20026;-85
2023/06/18 04:07:42;;;;;;;0.10;0.10;;;20.80;99.90;;;;;;4991749;28;20045;-85
2023/06/18 04:10:08;;;;;;;0.32;0.32;;;20.90;99.90;;;;;;4992148;28;20062;-86
2023/06/18 04:12:34;;;;;;;0.10;0.10;;;20.60;99.90;;;;;;4992108;28;20387;-85
2023/06/18 04:14:59;;;;;;;0.20;0.20;;;20.60;99.90;;;;;;4991939;28;20042;-86
2023/06/18 04:17:26;;;;;;;0.22;0.22;;;20.70;99.90;;;;;;4992444;28;20494;-86
2023/06/18 04:19:52;;;;;;;0.35;0.35;;;20.40;99.90;;;;;;5003148;28;20026;-85
2023/06/18 04:22:17;;;;;;;0.60;0.50;;;20.50;99.90;;;;;;5003210;28;20081;-86
2023/06/18 04:24:43;;;;;;;0.10;0.10;;;20.60;99.90;;;;;;5007383;28;20038;-86
2023/06/18 04:27:09;;;;;;;0.30;0.30;;;20.80;99.90;;;;;;4995194;28;20033;-86
2023/06/18 04:29:34;;;;;;;0.57;0.22;;;20.90;99.90;;;;;;5011903;28;20030;-85
2023/06/18 04:32:00;;;;;;;0.43;0.43;;;20.80;99.90;;;;;;5007122;28;20573;-87
2023/06/18 04:34:25;;;;;;;0.40;0.32;;;20.50;99.90;;;;;;4995816;28;20034;-85
2023/06/18 04:36:51;;;;;;;2.45;0.52;;;20.50;99.90;;;;;;4996276;28;20026;-86
2023/06/18 04:39:17;;;;;;;2.25;0.98;;;20.40;99.90;;;;;;5015206;28;20034;-85
2023/06/18 04:41:42;;;;;;;0.20;0.20;;;20.70;99.90;;;;;;5029007;28;20073;-86
2023/06/18 04:44:12;;;;;;;0.55;0.47;;;20.80;99.90;;;;;;5035516;28;20453;-86
2023/06/18 04:46:39;;;;;;;0.28;0.28;;;20.80;99.90;;;;;;5017278;28;20025;-85
2023/06/18 04:49:05;;;;;;;1.02;0.20;;;20.90;99.90;;;;;;5017296;28;20052;-85
2023/06/18 04:51:30;;;;;;;0.52;0.52;;;21.00;99.90;;;;;;5034307;28;20056;-86
2023/06/18 04:53:56;;;;;;;0.68;0.50;;;21.00;99.90;;;;;;5034812;28;20072;-85
2023/06/18 04:56:21;;;;;;;1.00;0.38;;;20.80;99.90;;;;;;5035074;28;20183;-85
2023/06/18 04:58:47;;;;;;;1.23;0.50;;;21.00;99.90;;;;;;5034833;28;20541;-85
2023/06/18 05:01:13;;;;;;;0.20;0.20;;;21.10;99.90;;;;;;5034829;28;20021;-86
2023/06/18 05:03:39;;;;;;;0.55;0.20;;;21.40;99.90;;;;;;5034677;28;20029;-85
2023/06/18 05:06:05;;;;;;;0.28;0.28;;;21.50;99.90;;;;;;5034377;28;20136;-85
2023/06/18 05:08:30;;;;;;;0.73;0.32;;;21.30;99.90;;;;;;5034616;28;20025;-85
2023/06/18 05:10:56;;;;;;;0.28;0.20;;;21.30;99.90;;;;;;5034573;28;20485;-86
2023/06/18 05:13:22;;;;;;;0.20;0.20;;;21.20;99.90;;;;;;5034491;28;20029;-85
2023/06/18 05:15:47;;;;;;;0.10;0.10;;;21.20;99.90;;;;;;5034835;28;20033;-86
2023/06/18 05:18:13;;;;;;;0.20;0.20;;;21.40;99.90;;;;;;5034494;28;20028;-85
2023/06/18 05:20:38;;;;;;;0.10;0.10;;;21.20;99.90;;;;;;5034278;28;20052;-86
2023/06/18 05:23:04;;;;;;;0.57;0.57;;;21.10;99.90;;;;;;5034494;28;20533;-85
2023/06/18 05:25:30;;;;;;;0.75;0.35;;;21.10;99.90;;;;;;5034428;28;20029;-86
2023/06/18 05:27:55;;;;;;;0.40;0.40;;;21.20;99.90;;;;;;5034199;28;20053;-86
2023/06/18 05:30:21;;;;;;;0.38;0.30;;;21.20;99.90;;;;;;5034767;28;20033;-86
2023/06/18 05:32:47;;;;;;;0.20;0.20;;;21.40;99.90;;;;;;5033868;28;20036;-86
2023/06/18 05:35:12;;;;;;;0.30;0.30;;;21.40;99.90;;;;;;5033970;28;20087;-86
2023/06/18 05:37:38;;;;;;;0.35;0.35;;;21.40;99.90;;;;;;5016255;28;20034;-85
2023/06/18 05:40:04;;;;;;;0.43;0.43;;;21.30;99.90;;;;;;5034176;28;20052;-85
2023/06/18 05:42:29;;;;;;;0.60;0.40;;;21.40;99.90;;;;;;5034073;28;20036;-85
2023/06/18 05:44:56;;;;;;;0.60;0.50;;;21.30;99.90;;;;;;5033091;28;20522;-85
2023/06/18 05:47:24;;;;;;;1.23;0.77;;;21.30;99.90;;;;;;5033453;28;20443;-86
2023/06/18 05:49:49;;;;;;;0.35;0.35;;;21.40;99.90;;;;;;5033652;28;20021;-85
2023/06/18 05:52:15;;;;;;;0.80;0.80;;;21.50;99.90;;;;;;5033743;28;20092;-86
2023/06/18 05:54:40;;;;;;;0.43;0.43;;;21.60;99.90;;;;;;5034069;28;20481;-85
2023/06/18 05:57:06;;;;;;;0.30;0.30;;;21.80;99.90;;;;;;5033647;28;20029;-86
2023/06/18 05:59:32;;;;;;;0.20;0.20;;;21.90;99.90;;;;;;5033603;28;20441;-85
2023/06/18 06:01:57;;;;;;;0.57;0.38;;;22.00;99.90;;;;;;5033115;28;20247;-86
2023/06/18 06:04:23;;;;;;;0.28;0.28;;;22.00;99.90;;;;;;5015727;28;20029;-86
2023/06/18 06:06:49;;;;;;;0.28;0.20;;;21.90;99.90;;;;;;5033359;28;20426;-86
2023/06/18 06:09:15;;;;;;;0.70;0.45;;;22.00;99.90;;;;;;5033615;28;20060;-86
2023/06/18 06:11:40;;;;;;;0.60;0.47;;;22.10;99.90;;;;;;5032644;28;20478;-86
2023/06/18 06:14:06;;;;;;;0.35;0.35;;;22.20;99.90;;;;;;5028499;28;20033;-90
2023/06/18 06:16:31;;;;;;;0.20;0.20;;;22.30;99.90;;;;;;5018269;28;20032;-89
2023/06/18 06:18:57;;;;;;;0.75;0.40;;;22.50;99.90;;;;;;5015633;28;20026;-94
2023/06/18 06:21:23;;;;;;;0.82;0.60;;;22.60;99.90;;;;;;5010461;28;20064;-91
2023/06/18 06:23:49;;;;;;;0.30;0.30;;;22.60;99.90;;;;;;5034548;28;20379;-92
2023/06/18 06:26:14;;;;;;;0.17;0.17;;;22.70;99.90;;;;;;5032642;28;20033;-91
2023/06/18 06:28:40;;;;;;;0.30;0.30;;;22.70;99.90;;;;;;5030735;28;20033;-91
2023/06/18 06:31:06;;;;;;;1.08;0.50;;;22.80;99.90;;;;;;4996819;28;20034;-93
2023/06/18 06:33:32;;;;;;;0.45;0.45;;;22.90;99.90;;;;;;5017419;28;20041;-91
2023/06/18 06:35:57;;;;;;;0.20;0.20;;;22.90;99.90;;;;;;5016087;28;20270;-91
2023/06/18 06:38:23;;;;;;;0.47;0.47;;;23.00;99.90;;;;;;5015657;28;20022;-91
2023/06/18 06:40:49;;;;;;;0.70;0.68;;;23.20;99.90;;;;;;5034407;28;20136;-92
2023/06/18 06:43:15;;;;;;;2.25;1.02;;;23.40;99.90;;;;;;5014315;28;20095;-85
2023/06/18 06:45:41;;;;;;;0.40;0.40;;;23.40;99.90;;;;;;5013518;28;20037;-82
2023/06/18 06:48:06;;;;;;;0.60;0.60;;;23.30;99.90;;;;;;5015397;28;20432;-85
2023/06/18 06:50:32;;;;;;;0.90;0.90;;;23.40;99.90;;;;;;5031891;28;20109;-90
2023/06/18 06:52:58;;;;;;;0.55;0.55;;;23.30;99.90;;;;;;5033144;28;20060;-89
2023/06/18 06:55:23;;;;;;;0.88;0.55;;;23.50;99.90;;;;;;5017429;28;20398;-93
2023/06/18 06:57:49;;;;;;;1.00;0.47;;;23.70;99.90;;;;;;5007036;28;20018;-83
2023/06/18 07:00:16;;;;;;;0.30;0.30;;;23.80;99.90;;;;;;5012553;28;20088;-83
2023/06/18 07:02:41;;;;;;;0.20;0.20;;;23.90;99.90;;;;;;5012827;28;20075;-83
2023/06/18 07:05:08;;;;;;;0.35;0.35;;;23.90;99.90;;;;;;5013105;28;20121;-83
2023/06/18 07:07:35;;;;;;;0.55;0.55;;;24.00;99.90;;;;;;5012841;28;20542;-83
2023/06/18 07:10:01;;;;;;;0.38;0.38;;;24.00;99.90;;;;;;5012967;28;20040;-83
2023/06/18 07:12:27;;;;;;;1.10;0.40;;;24.10;99.90;;;;;;5012988;28;20029;-83
2023/06/18 07:14:52;;;;;;;0.10;0.10;;;24.10;99.90;;;;;;5012379;28;20046;-83
2023/06/18 07:17:18;;;;;;;0.38;0.38;;;24.20;99.90;;;;;;5013013;28;20104;-83
2023/06/18 07:19:44;;;;;;;0.10;0.10;;;24.30;99.90;;;;;;5012762;28;20084;-83
2023/06/18 07:22:09;;;;;;;2.17;0.75;;;24.50;99.90;;;;;;5012794;28;20087;-83
2023/06/18 07:24:35;;;;;;;0.73;0.45;;;24.60;99.90;;;;;;5012688;28;20490;-83
2023/06/18 07:27:00;;;;;;;0.50;0.32;;;24.70;99.90;;;;;;5012649;28;20034;-83
2023/06/18 07:29:26;;;;;;;2.13;0.63;;;24.80;99.90;;;;;;5012520;28;20129;-83
2023/06/18 07:31:52;;;;;;;0.32;0.32;;;24.90;99.90;;;;;;5030163;28;20020;-82
2023/06/18 07:34:17;;;;;;;0.43;0.43;;;25.10;99.90;;;;;;5032240;28;20040;-83
2023/06/18 07:36:43;;;;;;;0.25;0.25;;;25.10;99.90;;;;;;5032209;28;20053;-83
2023/06/18 07:39:08;;;;;;;0.50;0.40;;;25.20;99.90;;;;;;5032111;28;20037;-83
2023/06/18 07:41:35;;;;;;;0.57;0.30;;;25.20;99.90;;;;;;5030048;28;20061;-88
2023/06/18 07:44:00;;;;;;;0.38;0.28;;;25.20;99.90;;;;;;5024123;28;20029;-89
2023/06/18 07:46:26;;;;;;;0.70;0.40;;;25.30;99.90;;;;;;5014622;28;20034;-90
2023/06/18 07:48:52;;;;;;;0.93;0.47;;;25.20;99.90;;;;;;5013183;28;20025;-90
2023/06/18 07:51:18;;;;;;;0.20;0.20;;;25.30;99.90;;;;;;5027204;28;20037;-90
2023/06/18 07:53:43;;;;;;;0.77;0.63;;;25.40;99.90;;;;;;5027564;28;20084;-90
2023/06/18 07:56:09;;;;;;;0.30;0.30;;;25.50;99.90;;;;;;5031956;28;20033;-89
2023/06/18 07:58:35;;;;;;;0.28;0.28;;;25.60;99.90;;;;;;5031385;28;20116;-90
2023/06/18 08:01:00;;;;;;;0.35;0.35;;;25.70;99.90;;;;;;5030526;28;20040;-90
2023/06/18 08:03:26;;;;;;;0.10;0.10;;;25.90;99.90;;;;;;5014258;28;20025;-91
2023/06/18 08:05:52;;;;;;;0.10;0.10;;;26.20;99.90;;;;;;5003272;28;20395;-90
2023/06/18 08:08:18;;;;;;;0.28;0.25;;;26.40;99.90;;;;;;5017069;28;20029;-90
2023/06/18 08:10:43;;;;;;;0.28;0.28;;;26.50;99.90;;;;;;4999045;28;20030;-89
2023/06/18 08:13:09;;;;;;;0.20;0.20;;;26.50;99.90;;;;;;5015866;28;20096;-89
2023/06/18 08:15:35;;;;;;;2.92;0.93;;;26.40;99.90;;;;;;5017279;28;20057;-92
2023/06/18 08:18:00;;;;;;;11.50;1.17;;;26.60;99.90;;;;;;4998433;28;20026;-90
2023/06/18 08:20:26;;;;;;;0.30;0.25;;;26.50;99.90;;;;;;5005509;28;20505;-91
2023/06/18 08:22:52;;;;;;;0.95;0.60;;;26.60;99.90;;;;;;5021694;28;20038;-89
2023/06/18 08:25:18;;;;;;;0.38;0.35;;;26.60;99.90;;;;;;5015913;28;20103;-90
2023/06/18 08:27:44;;;;;;;0.00;0.00;;;26.60;99.90;;;;;;5023407;28;20057;-90
2023/06/18 08:30:10;;;;;;;1.10;0.70;;;26.50;99.90;;;;;;5017689;28;20021;-91
2023/06/18 08:32:37;;;;;;;0.43;0.28;;;26.40;99.90;;;;;;5018370;28;20115;-89
2023/06/18 08:35:05;;;;;;;0.22;0.20;;;26.40;99.90;;;;;;5033786;28;20040;-89
2023/06/18 08:37:30;;;;;;;0.20;0.20;;;26.30;99.90;;;;;;5011772;28;20060;-90
2023/06/18 08:39:56;;;;;;;0.98;0.60;;;26.30;99.90;;;;;;5035642;28;20095;-91
2023/06/18 08:42:22;;;;;;;0.60;0.60;;;26.20;99.90;;;;;;5011323;28;20045;-91
2023/06/18 08:44:50;;;;;;;1.33;0.93;;;26.20;99.90;;;;;;5033784;28;20679;-90
2023/06/18 08:47:17;;;;;;;0.38;0.38;;;26.20;99.90;;;;;;5035778;28;20068;-89
2023/06/18 08:49:44;;;;;;;0.40;0.40;;;26.40;99.90;;;;;;5020495;28;20033;-89
2023/06/18 08:52:10;;;;;;;0.52;0.30;;;26.60;99.90;;;;;;5016617;28;20025;-90
2023/06/18 08:54:37;;;;;;;0.38;0.38;;;26.60;99.90;;;;;;5028686;28;20444;-84
2023/06/18 08:57:09;;;;;;;3.20;0.57;;;26.60;99.90;;;;;;5016600;28;20394;-84
2023/06/18 08:59:36;;;;;;;0.50;0.45;;;26.60;99.90;;;;;;5015492;28;20033;-84
2023/06/18 09:02:04;;;;;;;0.25;0.25;;;26.50;99.90;;;;;;5015273;28;20037;-84
2023/06/18 09:04:32;;;;;;;0.80;0.80;;;26.50;99.90;;;;;;5015397;28;20033;-84
2023/06/18 09:06:58;;;;;;;4.47;1.05;;;26.10;99.90;;;;;;5015312;28;20021;-84
2023/06/18 09:09:24;;;;;;;0.32;0.32;;;25.80;99.90;;;;;;5015281;28;20030;-84
2023/06/18 09:11:50;;;;;;;0.63;0.40;;;25.80;99.90;;;;;;5014892;28;20383;-84
2023/06/18 09:14:15;;;;;;;1.33;0.90;;;25.70;99.90;;;;;;5015010;28;20041;-84
2023/06/18 09:16:41;;;;;;;0.52;0.52;;;25.80;99.90;;;;;;5015485;28;20029;-84
2023/06/18 09:19:07;;;;;;;1.67;1.30;;;25.60;99.90;;;;;;5013777;28;20041;-84
2023/06/18 09:21:38;;;;;;;1.50;1.10;;;25.10;99.90;;;;;;5014965;28;20494;-84
2023/06/18 09:24:23;;;;;;;0.65;0.63;;;25.10;99.90;;;;;;5014858;28;20111;-83
2023/06/18 09:26:58;;;;;;;0.55;0.45;;;25.10;99.90;;;;;;5014426;28;20038;-84
2023/06/18 09:29:31;;;;;;;1.10;0.50;;;25.10;99.90;;;;;;5014596;28;20049;-84
2023/06/18 09:32:04;;;;;;;0.30;0.30;;;24.90;99.90;;;;;;5033148;28;20033;-84
2023/06/18 09:34:31;;;;;;;0.88;0.70;;;25.00;99.90;;;;;;5034408;28;20037;-83
2023/06/18 09:36:56;;;;;;;0.98;0.47;;;24.90;99.90;;;;;;5034819;28;20506;-84
2023/06/18 09:39:24;;;;;;;0.30;0.30;;;24.90;99.90;;;;;;5033976;28;20025;-84
2023/06/18 09:41:54;;;;;;;0.50;0.50;;;25.00;99.90;;;;;;5033858;28;20128;-84
2023/06/18 09:44:21;;;;;;;1.27;0.43;;;25.00;99.90;;;;;;5034274;28;20017;-84
2023/06/18 09:46:57;;;;;;;0.65;0.50;;;25.00;99.90;;;;;;5034388;28;20104;-84
2023/06/18 09:49:24;;;;;;;0.55;0.55;;;25.10;99.90;;;;;;5034505;28;20021;-84
2023/06/18 09:51:50;;;;;;;0.40;0.40;;;25.30;99.90;;;;;;5034035;28;20064;-84
2023/06/18 09:54:16;;;;;;;0.68;0.68;;;25.30;99.90;;;;;;5033949;28;20121;-84
2023/06/18 09:57:02;;;;;;;0.93;0.52;;;25.30;99.90;;;;;;5034308;28;20513;-84
2023/06/18 09:59:29;;;;;;;0.75;0.73;;;25.30;99.90;;;;;;5034073;28;20029;-84
2023/06/18 10:01:55;;;;;;;1.17;0.85;;;25.40;99.90;;;;;;5033952;28;20079;-84
2023/06/18 10:04:21;;;;;;;0.38;0.38;;;25.70;99.90;;;;;;5034399;28;20022;-84
2023/06/18 10:06:55;;;;;;;0.40;0.40;;;25.90;99.90;;;;;;5031946;28;20025;-87
2023/06/18 10:09:22;;;;;;;0.95;0.80;;;25.80;99.90;;;;;;5022250;28;20034;-90
2023/06/18 10:11:54;;;;;;;1.80;0.70;;;25.80;99.90;;;;;;4996620;28;20025;-90
2023/06/18 10:14:25;;;;;;;0.70;0.70;;;25.80;99.90;;;;;;5026203;28;20037;-90
2023/06/18 10:16:54;;;;;;;3.20;0.60;;;25.70;99.90;;;;;;5034185;28;20029;-90
2023/06/18 10:19:27;;;;;;;1.48;0.85;;;25.90;99.90;;;;;;5007057;28;20033;-90
2023/06/18 10:21:59;;;;;;;0.47;0.47;;;26.10;99.90;;;;;;5033543;28;20033;-90
2023/06/18 10:24:32;;;;;;;0.65;0.65;;;26.10;99.90;;;;;;5029749;28;20039;-93
2023/06/18 10:26:58;;;;;;;1.10;0.28;;;26.10;99.90;;;;;;5034171;28;20021;-89
2023/06/18 10:29:24;;;;;;;0.52;0.52;;;26.10;99.90;;;;;;4997925;28;20037;-90
2023/06/18 10:31:50;;;;;;;0.50;0.50;;;26.10;99.90;;;;;;5026165;28;20122;-90
2023/06/18 10:34:17;;;;;;;1.20;0.63;;;26.20;99.90;;;;;;5006336;28;20087;-90
2023/06/18 10:36:44;;;;;;;0.85;0.85;;;26.30;99.90;;;;;;5026131;28;20087;-89
2023/06/18 10:39:10;;;;;;;0.73;0.47;;;26.00;99.90;;;;;;5012725;28;20029;-90
2023/06/18 10:41:36;;;;;;;0.30;0.30;;;26.10;99.90;;;;;;5033382;28;20049;-91
2023/06/18 10:44:02;;;;;;;1.33;0.63;;;26.20;99.90;;;;;;5016520;28;20161;-90
2023/06/18 10:46:33;;;;;;;1.13;0.40;;;26.40;99.90;;;;;;5014258;28;20494;-93
2023/06/18 10:49:16;;;;;;;0.38;0.35;;;26.30;99.90;;;;;;5020078;28;20482;-92
2023/06/18 10:52:12;;;;;;;1.45;0.77;;;26.20;99.90;;;;;;5025762;28;20025;-96
2023/06/18 10:54:38;;;;;;;0.57;0.50;;;26.10;99.90;;;;;;5024503;28;20049;-84
2023/06/18 10:57:04;;;;;;;0.63;0.55;;;26.00;99.90;;;;;;5013089;28;20033;-84
2023/06/18 10:59:35;;;;;;;0.30;0.30;;;25.80;99.90;;;;;;5015667;28;20033;-84
2023/06/18 11:02:01;;;;;;;0.32;0.28;;;25.70;99.90;;;;;;5031304;28;20022;-84
2023/06/18 11:04:31;;;;;;;0.63;0.40;;;25.60;99.90;;;;;;5031772;28;20040;-84
2023/06/18 11:07:23;;;;;;;1.83;0.88;;;25.30;99.90;;;;;;5026485;28;20025;-85
2023/06/18 11:10:00;;;;;;;1.60;1.38;;;25.50;99.90;;;;;;5028810;28;20033;-84
2023/06/18 11:12:28;;;;;;;0.65;0.50;;;25.60;99.90;;;;;;5028741;28;20022;-84
2023/06/18 11:15:20;;;;;;;1.85;1.35;;;25.50;99.90;;;;;;5014934;28;20033;-84
2023/06/18 11:17:50;;;;;;;0.70;0.70;;;25.50;99.90;;;;;;5032229;28;20033;-84
2023/06/18 11:20:18;;;;;;;1.27;0.70;;;25.30;99.90;;;;;;5032161;28;20029;-84
2023/06/18 11:22:44;;;;;;;0.47;0.47;;;25.50;99.90;;;;;;5032077;28;20022;-84
2023/06/18 11:25:11;;;;;;;0.82;0.73;;;25.50;99.90;;;;;;5032231;28;20025;-84
2023/06/18 11:27:46;;;;;;;0.50;0.50;;;25.50;99.90;;;;;;5032181;28;20033;-84
2023/06/18 11:30:13;;;;;;;0.60;0.60;;;25.50;99.90;;;;;;5028319;28;20061;-84
2023/06/18 11:32:40;;;;;;;1.58;0.98;;;25.20;99.90;;;;;;5012571;28;20474;-84
2023/06/18 11:35:07;;;;;;;1.02;0.70;;;25.40;99.90;;;;;;5012702;28;20144;-84
2023/06/18 11:37:33;;;;;;;0.40;0.40;;;25.50;99.90;;;;;;5012425;28;20018;-84
2023/06/18 11:39:59;;;;;;;0.75;0.75;;;25.40;99.90;;;;;;5012470;28;20077;-84
2023/06/18 11:42:27;;;;;;;1.30;1.20;;;25.60;99.90;;;;;;5013338;28;20080;-84
2023/06/18 11:45:01;;;;;;;0.73;0.70;;;25.60;99.90;;;;;;5032367;28;20040;-84
2023/06/18 11:47:28;;;;;;;0.85;0.85;;;25.60;99.90;;;;;;5032261;28;20025;-84
2023/06/18 11:49:54;;;;;;;1.20;1.10;;;25.70;99.90;;;;;;5031868;28;20025;-84
2023/06/18 11:52:24;;;;;;;1.15;1.05;;;26.00;99.90;;;;;;5032508;28;20018;-84
2023/06/18 11:54:56;;;;;;;0.82;0.82;;;26.30;99.90;;;;;;5031776;28;20034;-84
2023/06/18 11:57:23;;;;;;;0.70;0.70;;;26.70;99.90;;;;;;5031942;28;20065;-84
2023/06/18 11:59:54;;;;;;;0.35;0.35;;;27.00;99.90;;;;;;5032415;28;20025;-84
2023/06/18 12:02:22;;;;;;;0.30;0.30;;;27.40;99.90;;;;;;5031904;28;20536;-84
2023/06/18 12:04:50;;;;;;;0.63;0.63;;;27.60;99.90;;;;;;5031589;28;20031;-84
2023/06/18 12:07:16;;;;;;;0.20;0.20;;;27.70;99.90;;;;;;5031838;28;20060;-84
2023/06/18 12:09:42;;;;;;;1.50;1.00;;;27.70;99.90;;;;;;5031956;28;20045;-84
2023/06/18 12:12:20;;;;;;;0.98;0.82;;;27.90;99.90;;;;;;5031941;28;20576;-84
2023/06/18 12:14:57;;;;;;;1.00;0.82;;;28.20;99.90;;;;;;5031747;28;20041;-83
2023/06/18 12:17:51;;;;;;;1.00;1.00;;;28.20;99.90;;;;;;5031894;28;20075;-84
2023/06/18 12:20:23;;;;;;;0.60;0.60;;;28.20;99.90;;;;;;5031625;28;20095;-85
2023/06/18 12:22:50;;;;;;;2.35;1.42;;;28.30;99.90;;;;;;5031555;28;20030;-84
2023/06/18 12:25:17;;;;;;;0.80;0.80;;;28.30;99.90;;;;;;5031702;28;20030;-85
2023/06/18 12:27:43;;;;;;;0.63;0.60;;;28.40;99.90;;;;;;5031839;28;20025;-84
2023/06/18 12:30:11;;;;;;;1.92;1.13;;;28.60;99.90;;;;;;5028159;28;20501;-84
2023/06/18 12:32:38;;;;;;;0.85;0.50;;;28.70;99.90;;;;;;5012046;28;20130;-84
2023/06/18 12:35:14;;;;;;;1.95;0.77;;;28.70;99.90;;;;;;5011611;28;20052;-84
2023/06/18 12:37:45;;;;;;;1.45;1.33;;;29.10;99.90;;;;;;5012133;28;20051;-84
2023/06/18 12:40:18;;;;;;;0.70;0.60;;;28.80;99.90;;;;;;5012233;28;20019;-84
2023/06/18 12:42:45;;;;;;;2.42;1.20;;;28.70;99.90;;;;;;5021883;28;20446;-84
2023/06/18 12:45:11;;;;;;;1.25;1.15;;;28.50;99.90;;;;;;5031669;28;20025;-84
2023/06/18 12:47:42;;;;;;;1.17;1.05;;;28.60;99.90;;;;;;5031916;28;20075;-85
2023/06/18 12:50:08;;;;;;;0.82;0.80;;;28.80;99.90;;;;;;5031235;28;20033;-85